Green City, MO (63545)

5:28 PM CDT on July 23, 2014 (GMT -0500)
KMOMILAN2 Elev 910 ft | 40.17 °N, 93.09 °W | Change Station

Current weather conditions updated 0 second ago

Partly Cloudy
Partly Cloudy
86.2 °F
Feels Like 94 °F
N
3.6
Wind Variable Wind from North
Gusts 3.6 mph

Tomorrow is forecast to be Much Cooler than today.

Today
High -- | Low -- °F
--% Chance of Precip.
Yesterday
High -- | Low -- °F
Precip. -- in
6:01 AM 8:34 PM
Waning Crescent, 8% visible
Pressure 30.12 in
Visibility 10.0 miles
Clouds Scattered Clouds 4600 ft
Heat Index 94 °F
Dew Point 74 °F
Humidity 67%
Rainfall 0.00 in
Snow Depth Not available.
UV 4 out of 12
Pollen 5.70 out of 12
Air Quality Not available.
Flu Activity Not available.
METAR KIRK 232155Z AUTO 03013G18KT 10SM SCT046 27/17 A3013 RMK AO2 SLP197 T02670167

More Conditions Fewer Conditions

Pressure 30.12 in
Visibility 10.0 miles
Clouds Scattered Clouds 4600 ft
Heat Index 94 °F
Dew Point 74 °F
Humidity 67%
Rainfall 0.00 in
Snow Depth Not available.
UV 4 out of 12
Pollen 5.70 out of 12
Air Quality Not available.
Flu Activity Not available.
METAR KIRK 232155Z AUTO 03013G18KT 10SM SCT046 27/17 A3013 RMK AO2 SLP197 T02670167

More Conditions Fewer Conditions

10-Day Weather Forecast

Almanac

Astronomy

Jul. 23, 2014 Rise Set
Actual Time 6:01 AM CDT 8:34 PM CDT
Civil Twilight 5:30 AM CDT 9:05 PM CDT
Nautical Twilight 4:51 AM CDT 9:44 PM CDT
Astronomical Twilight 4:07 AM CDT 10:28 PM CDT
Moon 3:20 AM CDT 6:03 PM CDT
Length of Visible Light 15h 35m
Length of Day
14h 33m
Tomorrow will be 1m 42s shorter.
Waning Crescent, 8% of the Moon is Illuminated
Today
Waning Crescent
Jul 26
New
Aug 3
First Quarter
Aug 10
Full
Aug 17
Last Quarter

Today's Extremes

State Highs State Lows

Community

WunderPhotos

Upload Photos

1,736,806 photos uploaded!

Nearby

Snow Depth

Station Depth Elevation
No new snow has been reported.

Earthquake Activity

City Distance Mag. Time & Date
No recent earthquake activity has been reported nearby.
Minimum magnitude displayed is 2.5.

Coastal Water Temperatures

Place Temperature
No Stations Reporting

Nearby Weather Stations

Station Location Temp. Heat Index Dew Point Humidity Wind Precip. Elev Updated Type
Milan, MO 86.2 °F 94 °F 74 °F 67% North  at  3.6 mph 0.00 in / hr 910 ft 5:28 PM CDT Rapid Fire
Unionville MO, Unionville, MO 79.3 °F 81 °F 63 °F 58% NE  at  6.9 mph 0.00 in / hr 1053 ft 5:28 PM CDT Rapid Fire
North Central Missouri, Browning, MO 82.2 °F 84 °F 64 °F 54% NW  at  6.0 mph 0.00 in / hr 810 ft 5:28 PM CDT Rapid Fire

Show More Stations Show Fewer Stations